Time;durP1;ratioP1;P1;durP2;ratioP2;P2;SDS_P1;SDS_P2;PMS_P1;PMS_P2;Temp;Humidity;BMP_temperature;BMP_pressure;BME280_temperature;BME280_humidity;BME280_pressure;Samples;Min_cycle;Max_cycle;Signal;HPM_P1;HPM_P2
2022/03/31 00:00:37;;;;;;;0.65;0.65;;;5.80;68.60;;;;;;5118557;28;20031;-68
2022/03/31 00:03:06;;;;;;;1.30;0.50;;;5.80;68.70;;;;;;5099708;28;20495;-68
2022/03/31 00:05:33;;;;;;;1.33;0.70;;;5.80;68.80;;;;;;5118885;28;20469;-69
2022/03/31 00:08:01;;;;;;;0.80;0.55;;;5.80;68.90;;;;;;5118428;28;20036;-69
2022/03/31 00:10:30;;;;;;;1.17;0.70;;;5.70;69.00;;;;;;5115100;28;20039;-68
2022/03/31 00:12:57;;;;;;;0.98;0.73;;;5.70;69.10;;;;;;5115404;28;20047;-69
2022/03/31 00:15:24;;;;;;;0.93;0.75;;;5.70;69.10;;;;;;5115323;28;20089;-68
2022/03/31 00:17:50;;;;;;;0.60;0.60;;;5.60;69.10;;;;;;5079895;28;20036;-68
2022/03/31 00:23:41;;;;;;;0.90;0.60;;;5.60;69.30;;;;;;5114892;28;20065;-69
2022/03/31 00:26:08;;;;;;;1.25;0.80;;;5.60;69.30;;;;;;5096458;28;20040;-69
2022/03/31 00:28:34;;;;;;;0.63;0.57;;;5.60;69.40;;;;;;5114775;28;20044;-69
2022/03/31 00:31:00;;;;;;;1.25;0.75;;;5.60;69.40;;;;;;5114734;28;20437;-69
2022/03/31 00:33:25;;;;;;;0.88;0.70;;;5.60;69.60;;;;;;5115075;28;20541;-68
2022/03/31 00:35:51;;;;;;;0.77;0.60;;;5.50;69.60;;;;;;5114587;28;20073;-69
2022/03/31 00:38:17;;;;;;;0.90;0.70;;;5.50;69.80;;;;;;5114634;28;20043;-69
2022/03/31 00:40:43;;;;;;;0.50;0.50;;;5.40;69.90;;;;;;5114987;28;20098;-69
2022/03/31 00:43:09;;;;;;;2.00;0.80;;;5.40;70.00;;;;;;5114680;28;20544;-69
2022/03/31 00:45:46;;;;;;;0.52;0.50;;;5.40;70.10;;;;;;5114363;28;20047;-69
2022/03/31 00:48:13;;;;;;;1.23;0.90;;;5.30;70.20;;;;;;5114972;28;20489;-69
2022/03/31 00:50:39;;;;;;;1.00;0.77;;;5.40;70.40;;;;;;5114599;28;20404;-68
2022/03/31 00:53:06;;;;;;;0.85;0.80;;;5.20;70.50;;;;;;5114146;28;20040;-69
2022/03/31 00:55:32;;;;;;;1.00;0.90;;;5.20;70.70;;;;;;5114066;28;20498;-69
2022/03/31 00:57:59;;;;;;;1.80;1.10;;;5.10;70.80;;;;;;5114965;28;20115;-69
2022/03/31 01:00:25;;;;;;;1.17;1.00;;;5.20;71.00;;;;;;5114120;28;20039;-69
2022/03/31 01:02:51;;;;;;;0.60;0.60;;;5.10;71.00;;;;;;5061752;28;20036;-69
2022/03/31 01:05:18;;;;;;;0.90;0.85;;;5.00;71.10;;;;;;5096287;28;20073;-69
2022/03/31 01:07:44;;;;;;;1.33;1.00;;;5.10;71.20;;;;;;5114895;28;20092;-69
2022/03/31 01:10:11;;;;;;;1.33;0.82;;;5.00;71.20;;;;;;5114006;28;20465;-69
2022/03/31 01:12:37;;;;;;;1.58;0.82;;;5.00;71.20;;;;;;5114437;28;20982;-69
2022/03/31 01:15:09;;;;;;;1.23;0.88;;;5.00;71.30;;;;;;5095918;28;20036;-69
2022/03/31 01:17:37;;;;;;;1.13;0.93;;;5.00;71.40;;;;;;5096085;28;20127;-69
2022/03/31 01:20:05;;;;;;;0.95;0.73;;;5.00;71.50;;;;;;5113826;28;20374;-68
2022/03/31 01:22:32;;;;;;;0.98;0.70;;;4.90;71.50;;;;;;5092509;28;20113;-68
2022/03/31 01:24:59;;;;;;;0.75;0.63;;;4.90;71.60;;;;;;5113757;28;20540;-68
2022/03/31 01:27:25;;;;;;;1.13;0.80;;;4.90;71.60;;;;;;5113725;28;20074;-68
2022/03/31 01:29:52;;;;;;;0.50;0.45;;;5.00;71.70;;;;;;5113648;28;20040;-68
2022/03/31 01:32:18;;;;;;;0.90;0.60;;;4.90;71.60;;;;;;5113715;28;20039;-68
2022/03/31 01:34:45;;;;;;;0.75;0.57;;;4.90;71.70;;;;;;5113529;28;20397;-68
2022/03/31 01:37:13;;;;;;;0.63;0.60;;;5.00;71.70;;;;;;5113298;28;20075;-69
2022/03/31 01:39:39;;;;;;;0.63;0.57;;;4.90;71.80;;;;;;5114000;28;20042;-68
2022/03/31 01:42:06;;;;;;;0.85;0.55;;;4.90;71.90;;;;;;5095498;28;20043;-68
2022/03/31 01:44:32;;;;;;;0.95;0.75;;;4.90;72.00;;;;;;5113667;28;20485;-68
2022/03/31 01:46:58;;;;;;;0.90;0.63;;;4.90;72.00;;;;;;5095285;28;20126;-68
2022/03/31 01:49:24;;;;;;;1.15;0.80;;;4.80;72.10;;;;;;5114006;28;20063;-68
2022/03/31 01:51:50;;;;;;;0.70;0.70;;;4.80;72.20;;;;;;5113663;28;20397;-68
2022/03/31 01:54:16;;;;;;;0.85;0.65;;;4.80;72.30;;;;;;5113728;28;20062;-68
2022/03/31 01:56:43;;;;;;;0.73;0.60;;;4.80;72.20;;;;;;5113163;28;20412;-68
2022/03/31 01:59:09;;;;;;;1.10;0.63;;;4.90;72.30;;;;;;5113560;28;20126;-68
2022/03/31 02:01:35;;;;;;;0.70;0.70;;;4.90;72.30;;;;;;5113436;28;20035;-68
2022/03/31 02:04:01;;;;;;;1.30;0.75;;;4.80;72.30;;;;;;5113124;28;20095;-68
2022/03/31 02:06:27;;;;;;;0.68;0.60;;;4.80;72.40;;;;;;5113537;28;20043;-68
2022/03/31 02:08:55;;;;;;;0.60;0.57;;;4.80;72.50;;;;;;5113038;28;20039;-68
2022/03/31 02:11:20;;;;;;;1.02;0.50;;;4.80;72.60;;;;;;5113231;28;20044;-68
2022/03/31 02:13:47;;;;;;;0.40;0.40;;;4.70;72.60;;;;;;5113319;28;20131;-68
2022/03/31 02:16:14;;;;;;;0.50;0.50;;;4.70;72.80;;;;;;5112909;28;20392;-67
2022/03/31 02:18:40;;;;;;;0.35;0.35;;;4.60;72.80;;;;;;5112782;28;20096;-68
2022/03/31 02:21:06;;;;;;;0.65;0.65;;;4.60;73.10;;;;;;5112922;28;20043;-68
2022/03/31 02:23:32;;;;;;;0.30;0.30;;;4.50;73.20;;;;;;5112923;28;20035;-68
2022/03/31 02:25:58;;;;;;;0.38;0.38;;;4.50;73.30;;;;;;5113312;28;20085;-67
2022/03/31 02:28:24;;;;;;;0.50;0.50;;;4.40;73.30;;;;;;5113095;28;20089;-68
2022/03/31 02:30:50;;;;;;;0.45;0.40;;;4.40;73.40;;;;;;5113413;28;20442;-68
2022/03/31 02:33:16;;;;;;;0.38;0.38;;;4.40;73.40;;;;;;5093450;28;20047;-68
2022/03/31 02:35:42;;;;;;;0.30;0.30;;;4.30;73.50;;;;;;5112850;28;20039;-67
2022/03/31 02:38:07;;;;;;;0.32;0.30;;;4.30;73.50;;;;;;5112760;28;20032;-68
2022/03/31 02:40:33;;;;;;;0.25;0.25;;;4.30;73.50;;;;;;5112529;28;20040;-67
2022/03/31 02:42:59;;;;;;;0.20;0.20;;;4.30;73.60;;;;;;5112599;28;20024;-68
2022/03/31 02:45:25;;;;;;;1.35;0.38;;;4.30;73.60;;;;;;5112920;28;20035;-68
2022/03/31 02:47:51;;;;;;;1.55;0.52;;;4.20;73.70;;;;;;5112374;28;20028;-68
2022/03/31 02:50:17;;;;;;;0.30;0.30;;;4.20;74.40;;;;;;5112782;28;20092;-68
2022/03/31 02:55:25;;;;;;;0.32;0.32;;;4.10;73.80;;;;;;5112338;28;20032;-68
2022/03/31 02:57:52;;;;;;;0.30;0.30;;;4.10;73.90;;;;;;5093836;28;20133;-68
2022/03/31 03:00:19;;;;;;;0.20;0.20;;;4.10;73.90;;;;;;5094388;28;20132;-68
2022/03/31 03:02:44;;;;;;;0.30;0.30;;;4.10;74.00;;;;;;5112649;28;20043;-68
2022/03/31 03:05:10;;;;;;;0.45;0.22;;;4.10;74.00;;;;;;5094040;28;20035;-68
2022/03/31 03:07:36;;;;;;;0.32;0.32;;;4.00;74.10;;;;;;5112220;28;20035;-68
2022/03/31 03:10:02;;;;;;;0.30;0.30;;;4.00;74.20;;;;;;5112677;28;20047;-68
2022/03/31 03:12:28;;;;;;;0.30;0.30;;;4.00;74.30;;;;;;5112213;28;20048;-68
2022/03/31 03:14:53;;;;;;;0.20;0.20;;;3.90;74.20;;;;;;5112142;28;20048;-68
2022/03/31 03:17:19;;;;;;;0.35;0.20;;;3.90;74.30;;;;;;5111987;28;20048;-68
2022/03/31 03:19:45;;;;;;;0.22;0.22;;;3.90;74.30;;;;;;5112416;28;20083;-68
2022/03/31 03:22:10;;;;;;;0.40;0.40;;;3.90;74.30;;;;;;5093913;28;20036;-68
2022/03/31 03:24:36;;;;;;;0.15;0.15;;;3.90;74.30;;;;;;5112089;28;20092;-68
2022/03/31 03:27:02;;;;;;;0.40;0.30;;;3.90;74.40;;;;;;5112619;28;20039;-68
2022/03/31 03:29:28;;;;;;;0.22;0.20;;;3.90;74.40;;;;;;5111968;28;20043;-68
2022/03/31 03:31:53;;;;;;;0.20;0.20;;;3.80;74.50;;;;;;5112086;28;20047;-68
2022/03/31 03:34:19;;;;;;;0.20;0.20;;;3.80;74.50;;;;;;5112140;28;20042;-68
2022/03/31 03:36:45;;;;;;;0.20;0.20;;;3.80;74.50;;;;;;5111583;28;20043;-68
2022/03/31 03:39:12;;;;;;;0.20;0.20;;;3.80;74.40;;;;;;5076703;28;20067;-68
2022/03/31 03:41:38;;;;;;;0.47;0.30;;;3.80;74.50;;;;;;5111721;28;20039;-67
2022/03/31 03:44:05;;;;;;;0.22;0.22;;;3.80;74.60;;;;;;5111760;28;20435;-68
2022/03/31 03:46:30;;;;;;;0.20;0.20;;;3.70;74.80;;;;;;5115473;28;20122;-68
2022/03/31 03:48:56;;;;;;;0.20;0.20;;;3.60;74.80;;;;;;5115394;28;20139;-68
2022/03/31 03:51:24;;;;;;;0.25;0.25;;;3.60;74.90;;;;;;5115303;28;20105;-67
2022/03/31 03:53:50;;;;;;;0.25;0.20;;;3.60;75.00;;;;;;5115666;28;20093;-68
2022/03/31 03:56:17;;;;;;;0.38;0.38;;;3.60;75.10;;;;;;5115071;28;20040;-68
2022/03/31 03:58:43;;;;;;;0.75;0.20;;;3.50;75.10;;;;;;5115122;28;20118;-68
2022/03/31 04:01:09;;;;;;;0.35;0.28;;;3.50;75.10;;;;;;5114990;28;20074;-67
2022/03/31 04:03:35;;;;;;;0.20;0.20;;;3.50;75.20;;;;;;5115261;28;20036;-68
2022/03/31 04:06:01;;;;;;;0.30;0.30;;;3.50;75.20;;;;;;5115174;28;20089;-68
2022/03/31 04:08:27;;;;;;;0.55;0.20;;;3.50;75.20;;;;;;5096972;28;20493;-68
2022/03/31 04:10:53;;;;;;;0.73;0.47;;;3.40;75.30;;;;;;5115023;28;20046;-68
2022/03/31 04:13:20;;;;;;;0.20;0.20;;;3.30;75.30;;;;;;5115021;28;20047;-68
2022/03/31 04:15:46;;;;;;;0.30;0.30;;;3.40;75.40;;;;;;5115261;28;20126;-67
2022/03/31 04:18:12;;;;;;;0.20;0.20;;;3.30;75.40;;;;;;5097174;28;20042;-68
2022/03/31 04:20:37;;;;;;;0.20;0.20;;;3.30;75.60;;;;;;5115479;28;20027;-68
2022/03/31 04:23:04;;;;;;;0.30;0.22;;;3.20;75.50;;;;;;5115684;28;20040;-68
2022/03/31 04:25:30;;;;;;;0.30;0.10;;;3.30;75.60;;;;;;5115703;28;20524;-68
2022/03/31 04:27:55;;;;;;;0.52;0.20;;;3.20;75.60;;;;;;5115783;28;20477;-68
2022/03/31 04:30:21;;;;;;;0.20;0.20;;;3.20;75.70;;;;;;5115272;28;20047;-68
2022/03/31 04:32:48;;;;;;;0.32;0.20;;;3.20;75.70;;;;;;5114918;28;20388;-68
2022/03/31 04:35:15;;;;;;;0.30;0.30;;;3.30;76.40;;;;;;5114905;28;20035;-68
2022/03/31 04:37:41;;;;;;;0.25;0.22;;;3.20;75.60;;;;;;5115150;28;20130;-68
2022/03/31 04:40:08;;;;;;;0.30;0.30;;;3.30;75.80;;;;;;5096369;28;20067;-68
2022/03/31 04:42:34;;;;;;;0.28;0.28;;;3.20;75.70;;;;;;5114639;28;20035;-68
2022/03/31 04:45:02;;;;;;;0.20;0.20;;;3.20;75.70;;;;;;5096657;28;20032;-68
2022/03/31 04:47:28;;;;;;;0.20;0.20;;;3.30;75.80;;;;;;5096856;28;20039;-68
2022/03/31 04:49:54;;;;;;;0.20;0.20;;;3.30;75.80;;;;;;5095750;28;20486;-69
2022/03/31 04:52:20;;;;;;;0.10;0.10;;;3.20;75.80;;;;;;5115197;28;20068;-68
2022/03/31 04:54:47;;;;;;;0.17;0.17;;;3.20;75.80;;;;;;5114651;28;20040;-68
2022/03/31 04:57:16;;;;;;;0.20;0.20;;;3.20;75.90;;;;;;5114069;28;20046;-68
2022/03/31 04:59:43;;;;;;;0.10;0.10;;;3.20;75.90;;;;;;5114319;28;20039;-68
2022/03/31 05:02:09;;;;;;;0.20;0.20;;;3.10;76.00;;;;;;5115082;28;20032;-68
2022/03/31 05:04:35;;;;;;;0.20;0.20;;;3.00;76.00;;;;;;5093257;28;20040;-68
2022/03/31 05:07:01;;;;;;;0.10;0.10;;;3.10;76.20;;;;;;5095647;28;20446;-68
2022/03/31 05:09:27;;;;;;;1.00;0.30;;;3.10;76.10;;;;;;5096115;28;20502;-68
2022/03/31 05:11:53;;;;;;;0.20;0.20;;;3.10;76.20;;;;;;5096045;28;20043;-68
2022/03/31 05:14:19;;;;;;;0.13;0.13;;;3.10;76.30;;;;;;5114334;28;20390;-68
2022/03/31 05:16:44;;;;;;;0.10;0.10;;;3.10;76.30;;;;;;5113603;28;20070;-69
2022/03/31 05:19:11;;;;;;;0.20;0.20;;;3.00;76.30;;;;;;5114579;28;20040;-68
2022/03/31 05:21:38;;;;;;;0.30;0.20;;;3.00;76.40;;;;;;5113890;28;20071;-68
2022/03/31 05:24:04;;;;;;;0.20;0.20;;;2.90;76.50;;;;;;5078778;28;20085;-68
2022/03/31 05:26:29;;;;;;;0.13;0.13;;;2.80;76.50;;;;;;5114163;28;20086;-68
2022/03/31 05:28:56;;;;;;;0.10;0.10;;;2.70;76.70;;;;;;5114489;28;20075;-68
2022/03/31 05:31:21;;;;;;;0.20;0.20;;;2.70;76.80;;;;;;5078944;28;20049;-68
2022/03/31 05:33:47;;;;;;;0.10;0.10;;;2.70;76.90;;;;;;5113988;28;20040;-69
2022/03/31 05:36:13;;;;;;;0.20;0.20;;;2.60;77.40;;;;;;5113855;28;20389;-69
2022/03/31 05:38:38;;;;;;;0.20;0.20;;;2.60;77.10;;;;;;5095903;28;20040;-69
2022/03/31 05:41:04;;;;;;;0.22;0.22;;;2.60;77.20;;;;;;5113525;28;20039;-69
2022/03/31 05:43:30;;;;;;;0.10;0.10;;;2.60;77.30;;;;;;5094993;28;20518;-69
2022/03/31 05:45:56;;;;;;;0.30;0.30;;;2.50;77.40;;;;;;5095829;28;20039;-69
2022/03/31 05:48:22;;;;;;;0.30;0.28;;;2.50;77.50;;;;;;5113851;28;20092;-69
2022/03/31 05:50:48;;;;;;;0.35;0.20;;;2.50;77.50;;;;;;5095057;28;20043;-69
2022/03/31 05:53:15;;;;;;;0.17;0.17;;;2.50;77.60;;;;;;5113695;28;20031;-69
2022/03/31 05:55:41;;;;;;;0.73;0.20;;;2.50;77.70;;;;;;5113432;28;20377;-69
2022/03/31 05:58:08;;;;;;;0.10;0.10;;;2.40;77.50;;;;;;5095391;28;20044;-68
2022/03/31 06:00:34;;;;;;;0.20;0.20;;;2.40;77.60;;;;;;5078360;28;20118;-68
2022/03/31 06:03:00;;;;;;;0.20;0.20;;;2.40;77.70;;;;;;5078774;28;20066;-68
2022/03/31 06:05:26;;;;;;;1.00;0.20;;;2.30;77.80;;;;;;5078477;28;20035;-69
2022/03/31 06:07:52;;;;;;;0.20;0.20;;;2.30;77.90;;;;;;5112983;28;20075;-67
2022/03/31 06:10:19;;;;;;;0.20;0.20;;;2.30;78.10;;;;;;5095083;28;20043;-67
2022/03/31 06:12:45;;;;;;;0.20;0.20;;;2.20;78.10;;;;;;5113324;28;20039;-68
2022/03/31 06:15:11;;;;;;;0.22;0.20;;;2.20;78.10;;;;;;5095099;28;20484;-68
2022/03/31 06:17:41;;;;;;;0.20;0.20;;;2.20;78.20;;;;;;5113807;28;20118;-68
2022/03/31 06:20:08;;;;;;;0.20;0.20;;;2.20;78.10;;;;;;5113017;28;20043;-68
2022/03/31 06:22:34;;;;;;;0.20;0.20;;;2.20;78.10;;;;;;5078306;28;20039;-68
2022/03/31 06:25:00;;;;;;;0.68;0.20;;;2.20;78.10;;;;;;5078375;28;20043;-69
2022/03/31 06:27:26;;;;;;;0.43;0.30;;;2.10;78.20;;;;;;5113281;28;20047;-68
2022/03/31 06:29:52;;;;;;;0.20;0.20;;;2.10;78.30;;;;;;5112941;28;20039;-69
2022/03/31 06:32:18;;;;;;;0.20;0.20;;;2.10;78.30;;;;;;5113534;28;20494;-69
2022/03/31 06:34:44;;;;;;;0.10;0.10;;;2.10;78.40;;;;;;5095199;28;20480;-69
2022/03/31 06:37:10;;;;;;;0.20;0.20;;;2.10;78.40;;;;;;5113275;28;20046;-69
2022/03/31 06:39:36;;;;;;;0.15;0.15;;;2.10;79.00;;;;;;5094672;28;20226;-69
2022/03/31 06:42:04;;;;;;;0.22;0.22;;;2.10;78.40;;;;;;5094935;28;20036;-69
2022/03/31 06:44:30;;;;;;;0.20;0.20;;;2.10;78.40;;;;;;5113105;28;20059;-69
2022/03/31 06:46:55;;;;;;;0.10;0.10;;;2.10;78.40;;;;;;5113049;28;20438;-70
2022/03/31 06:49:21;;;;;;;0.30;0.30;;;2.10;78.30;;;;;;5112864;28;20122;-70
2022/03/31 06:51:47;;;;;;;0.10;0.10;;;2.20;78.40;;;;;;5076031;28;20062;-70
2022/03/31 06:54:13;;;;;;;0.20;0.20;;;2.20;78.40;;;;;;5060682;28;20397;-69
2022/03/31 06:56:38;;;;;;;0.20;0.20;;;2.20;78.30;;;;;;5076636;28;20042;-69
2022/03/31 06:59:04;;;;;;;0.10;0.10;;;2.30;78.30;;;;;;5093126;28;20040;-69
2022/03/31 07:01:32;;;;;;;0.20;0.20;;;2.30;78.20;;;;;;5112563;28;20118;-72
2022/03/31 07:03:58;;;;;;;0.10;0.10;;;2.30;78.20;;;;;;5093728;28;20046;-70
2022/03/31 07:06:24;;;;;;;0.10;0.10;;;2.30;78.20;;;;;;5112979;28;20074;-70
2022/03/31 07:08:50;;;;;;;0.10;0.10;;;2.30;78.20;;;;;;5061437;28;20055;-70
2022/03/31 07:11:28;;;;;;;0.10;0.10;;;2.40;78.30;;;;;;5112591;28;20533;-70
2022/03/31 07:13:57;;;;;;;0.10;0.10;;;2.40;78.20;;;;;;5091955;28;20093;-70
2022/03/31 07:16:22;;;;;;;0.22;0.22;;;2.50;78.10;;;;;;5049216;28;20052;-73
2022/03/31 07:18:48;;;;;;;0.20;0.20;;;2.40;78.10;;;;;;5050881;28;20953;-72
2022/03/31 07:21:14;;;;;;;0.10;0.10;;;2.50;78.10;;;;;;5053399;28;20467;-71
2022/03/31 07:23:40;;;;;;;0.20;0.20;;;2.50;78.10;;;;;;5053234;28;20120;-71
2022/03/31 07:26:06;;;;;;;0.17;0.10;;;2.50;78.10;;;;;;5036389;28;20041;-71
2022/03/31 07:28:32;;;;;;;0.20;0.20;;;2.50;78.20;;;;;;5053503;28;20056;-71
2022/03/31 07:30:57;;;;;;;0.20;0.20;;;2.50;78.20;;;;;;5053193;28;20049;-73
2022/03/31 07:33:23;;;;;;;0.30;0.30;;;2.60;78.20;;;;;;5053367;28;20036;-72
2022/03/31 07:35:49;;;;;;;0.30;0.30;;;2.60;78.20;;;;;;5036687;28;20518;-73
2022/03/31 07:38:16;;;;;;;0.40;0.40;;;2.60;78.20;;;;;;5053259;28;20052;-73
2022/03/31 07:40:42;;;;;;;0.10;0.10;;;2.60;78.20;;;;;;5051208;28;20104;-72
2022/03/31 07:43:08;;;;;;;0.20;0.20;;;2.60;78.30;;;;;;5053421;28;20104;-72
2022/03/31 07:45:35;;;;;;;0.40;0.30;;;2.60;78.30;;;;;;5036226;28;20032;-73
2022/03/31 07:48:03;;;;;;;0.30;0.25;;;2.60;78.30;;;;;;5070891;28;20046;-74
2022/03/31 07:50:30;;;;;;;0.43;0.32;;;2.70;78.20;;;;;;5115689;28;20492;-73
2022/03/31 07:52:58;;;;;;;0.10;0.10;;;2.70;78.10;;;;;;5097186;28;20072;-72
2022/03/31 07:55:24;;;;;;;0.30;0.30;;;2.70;78.10;;;;;;5080480;28;20039;-73
2022/03/31 07:57:51;;;;;;;0.10;0.10;;;2.70;78.00;;;;;;5097113;28;20048;-72
2022/03/31 08:00:18;;;;;;;0.17;0.17;;;2.80;78.10;;;;;;5115646;28;20043;-73
2022/03/31 08:02:46;;;;;;;0.10;0.10;;;2.90;78.10;;;;;;5115515;28;20050;-72
2022/03/31 08:05:14;;;;;;;0.10;0.10;;;2.80;78.10;;;;;;5115656;28;20433;-73
2022/03/31 08:07:40;;;;;;;0.20;0.20;;;2.80;78.20;;;;;;5097208;28;20036;-73
2022/03/31 08:10:06;;;;;;;0.20;0.20;;;2.90;78.20;;;;;;5115449;28;20572;-74
2022/03/31 08:12:34;;;;;;;0.05;0.05;;;2.80;78.20;;;;;;5115358;28;20043;-76
2022/03/31 08:15:00;;;;;;;0.20;0.17;;;2.90;78.40;;;;;;5097341;28;20044;-75
2022/03/31 08:17:29;;;;;;;0.20;0.20;;;2.90;78.30;;;;;;5096522;28;20077;-72
2022/03/31 08:19:54;;;;;;;0.13;0.13;;;2.90;78.30;;;;;;5097498;28;20040;-73
2022/03/31 08:22:21;;;;;;;0.15;0.15;;;2.90;78.40;;;;;;5096855;28;20038;-73
2022/03/31 08:24:47;;;;;;;0.20;0.20;;;2.90;78.60;;;;;;5115609;28;20093;-75
2022/03/31 08:27:12;;;;;;;0.28;0.20;;;2.90;78.60;;;;;;5115161;28;20431;-72
2022/03/31 08:29:39;;;;;;;0.20;0.20;;;3.00;78.60;;;;;;5114914;28;20031;-73
2022/03/31 08:32:08;;;;;;;0.20;0.20;;;3.00;78.60;;;;;;5114181;28;20058;-72
2022/03/31 08:34:33;;;;;;;0.10;0.10;;;3.00;78.60;;;;;;5096793;28;20043;-72
2022/03/31 08:36:59;;;;;;;0.20;0.20;;;3.00;78.60;;;;;;5114810;28;20085;-72
2022/03/31 08:39:25;;;;;;;0.17;0.17;;;3.10;78.50;;;;;;5096337;28;20503;-73
2022/03/31 08:41:51;;;;;;;0.20;0.20;;;3.10;78.50;;;;;;5115071;28;20031;-73
2022/03/31 08:44:20;;;;;;;0.20;0.20;;;3.10;78.60;;;;;;5114672;28;20036;-72
2022/03/31 08:46:48;;;;;;;0.20;0.20;;;3.10;78.60;;;;;;5096291;28;20071;-74
2022/03/31 08:49:14;;;;;;;0.20;0.20;;;3.10;78.60;;;;;;5095930;28;20050;-72
2022/03/31 08:51:44;;;;;;;0.20;0.20;;;3.10;78.70;;;;;;5115205;28;20494;-71
2022/03/31 08:54:10;;;;;;;0.38;0.20;;;3.00;78.70;;;;;;5114579;28;20050;-75
2022/03/31 08:56:39;;;;;;;0.30;0.30;;;3.00;78.80;;;;;;5079136;28;20043;-74
2022/03/31 08:59:07;;;;;;;0.10;0.10;;;3.00;78.90;;;;;;5094377;28;20048;-74
2022/03/31 09:01:36;;;;;;;0.20;0.20;;;3.10;78.90;;;;;;5114970;28;20476;-74
2022/03/31 09:04:03;;;;;;;0.10;0.10;;;3.10;78.90;;;;;;5096239;28;20489;-74
2022/03/31 09:06:28;;;;;;;1.33;0.20;;;3.10;78.90;;;;;;5096895;28;20112;-75
2022/03/31 09:09:01;;;;;;;0.55;0.30;;;3.10;78.80;;;;;;5114178;28;20082;-75
2022/03/31 09:11:32;;;;;;;0.17;0.17;;;3.10;78.90;;;;;;5079504;28;20047;-72
2022/03/31 09:14:01;;;;;;;0.20;0.20;;;3.20;79.00;;;;;;5114458;28;20051;-72
2022/03/31 09:16:43;;;;;;;0.17;0.17;;;3.30;78.90;;;;;;5095794;28;20506;-73
2022/03/31 09:19:10;;;;;;;0.10;0.10;;;3.20;78.90;;;;;;5094212;28;20486;-73
2022/03/31 09:21:50;;;;;;;0.30;0.30;;;3.20;78.80;;;;;;5079061;28;20035;-73
2022/03/31 09:24:16;;;;;;;0.20;0.20;;;3.30;79.00;;;;;;5114578;28;20114;-72
2022/03/31 09:26:46;;;;;;;0.40;0.38;;;3.30;78.80;;;;;;5114356;28;20047;-72
2022/03/31 09:29:14;;;;;;;0.45;0.45;;;3.30;78.80;;;;;;5114291;28;20051;-72
2022/03/31 09:31:40;;;;;;;0.30;0.30;;;3.30;78.90;;;;;;5095925;28;20051;-72
2022/03/31 09:34:07;;;;;;;0.38;0.38;;;3.30;79.10;;;;;;5095572;28;20127;-72
2022/03/31 09:36:33;;;;;;;0.13;0.13;;;3.30;79.10;;;;;;5078195;28;20516;-73
2022/03/31 09:39:05;;;;;;;0.22;0.20;;;3.30;79.10;;;;;;5114352;28;20461;-72
2022/03/31 09:41:33;;;;;;;0.10;0.10;;;3.40;79.10;;;;;;5113343;28;20093;-70
2022/03/31 09:44:04;;;;;;;0.20;0.20;;;3.40;79.20;;;;;;5093545;28;20040;-71
2022/03/31 09:46:35;;;;;;;0.20;0.20;;;3.40;79.20;;;;;;5113707;28;20043;-71
2022/03/31 09:49:19;;;;;;;0.30;0.30;;;3.40;79.20;;;;;;5113984;28;20047;-70
2022/03/31 09:51:49;;;;;;;0.32;0.32;;;3.40;79.30;;;;;;5113638;28;20505;-72
2022/03/31 09:54:16;;;;;;;0.45;0.30;;;3.40;79.30;;;;;;5093952;28;20044;-72
2022/03/31 09:56:43;;;;;;;0.43;0.40;;;3.40;79.40;;;;;;5093528;28;20040;-71
2022/03/31 09:59:11;;;;;;;0.32;0.30;;;3.40;79.40;;;;;;5113420;28;20481;-71
2022/03/31 10:01:39;;;;;;;0.60;0.40;;;3.40;79.40;;;;;;5095685;28;20546;-71
2022/03/31 10:04:07;;;;;;;0.30;0.30;;;3.40;79.40;;;;;;5113342;28;20499;-70
2022/03/31 10:06:34;;;;;;;0.30;0.30;;;3.40;79.50;;;;;;5113152;28;20508;-71
2022/03/31 10:09:01;;;;;;;0.20;0.20;;;3.40;79.50;;;;;;5078244;28;20436;-71
2022/03/31 10:11:28;;;;;;;0.28;0.28;;;3.50;79.60;;;;;;5113326;28;20064;-71
2022/03/31 10:14:16;;;;;;;0.40;0.40;;;3.60;79.60;;;;;;5095450;28;20046;-71
2022/03/31 10:16:47;;;;;;;0.30;0.30;;;3.60;79.50;;;;;;5112899;28;20074;-71
2022/03/31 10:19:28;;;;;;;0.63;0.30;;;3.60;79.30;;;;;;5095489;28;20035;-71
2022/03/31 10:21:59;;;;;;;0.20;0.20;;;3.60;79.20;;;;;;5113156;28;20036;-71
2022/03/31 10:27:02;;;;;;;0.22;0.22;;;3.60;79.40;;;;;;5096669;28;20134;-72
2022/03/31 10:29:38;;;;;;;0.20;0.20;;;3.60;79.60;;;;;;5094721;28;20067;-73
2022/03/31 10:32:17;;;;;;;0.40;0.32;;;3.60;79.60;;;;;;5095050;28;20040;-70
2022/03/31 10:34:44;;;;;;;0.38;0.30;;;3.80;79.60;;;;;;5095175;28;20120;-72
2022/03/31 10:37:11;;;;;;;0.30;0.30;;;3.70;79.50;;;;;;5093968;28;20040;-73
2022/03/31 10:39:37;;;;;;;0.63;0.38;;;3.80;79.50;;;;;;5061864;28;20458;-71
2022/03/31 10:42:07;;;;;;;0.65;0.40;;;3.70;79.50;;;;;;5075792;28;20073;-72
2022/03/31 10:44:33;;;;;;;0.33;0.27;;;3.90;79.60;;;;;;5078047;28;20040;-72
2022/03/31 10:47:03;;;;;;;0.25;0.25;;;3.90;79.40;;;;;;5077982;28;20089;-72
2022/03/31 10:49:30;;;;;;;0.28;0.20;;;4.10;79.40;;;;;;5094453;28;20051;-72
2022/03/31 10:51:58;;;;;;;0.17;0.17;;;4.00;79.20;;;;;;5112721;28;20047;-71
2022/03/31 10:54:28;;;;;;;0.20;0.20;;;4.00;79.50;;;;;;5093315;28;20512;-71
2022/03/31 10:57:12;;;;;;;0.30;0.30;;;4.10;79.50;;;;;;5113224;28;20063;-71
2022/03/31 10:59:39;;;;;;;0.30;0.30;;;4.00;79.60;;;;;;5110286;28;20032;-71
2022/03/31 11:02:15;;;;;;;0.30;0.30;;;4.00;79.60;;;;;;5077500;28;20039;-72
2022/03/31 11:04:53;;;;;;;0.43;0.30;;;3.90;79.60;;;;;;5110940;28;20036;-73
2022/03/31 11:07:22;;;;;;;0.38;0.30;;;4.00;79.70;;;;;;5112626;28;20044;-72
2022/03/31 11:09:58;;;;;;;0.30;0.30;;;4.00;79.60;;;;;;5112632;28;20039;-72
2022/03/31 11:12:27;;;;;;;0.40;0.30;;;4.10;79.60;;;;;;5112495;28;20043;-71
2022/03/31 11:15:00;;;;;;;0.20;0.20;;;4.10;79.50;;;;;;5113107;28;20047;-72
2022/03/31 11:17:28;;;;;;;0.30;0.20;;;4.00;79.40;;;;;;5112000;28;20039;-72
2022/03/31 11:19:55;;;;;;;0.20;0.20;;;4.00;79.60;;;;;;5078262;28;20131;-72
2022/03/31 11:22:23;;;;;;;0.30;0.30;;;4.00;79.80;;;;;;5112464;28;20047;-71
2022/03/31 11:24:51;;;;;;;0.38;0.30;;;3.90;79.80;;;;;;5112451;28;20039;-71
2022/03/31 11:27:30;;;;;;;0.30;0.30;;;4.00;79.90;;;;;;5112460;28;20043;-72
2022/03/31 11:29:58;;;;;;;0.20;0.20;;;4.30;79.90;;;;;;5109402;28;20442;-72
2022/03/31 11:32:37;;;;;;;0.20;0.20;;;4.20;79.80;;;;;;5112234;28;20040;-72
2022/03/31 11:35:08;;;;;;;0.40;0.40;;;4.20;79.70;;;;;;5094242;28;20040;-73
2022/03/31 11:37:34;;;;;;;0.30;0.30;;;4.20;79.70;;;;;;5093558;28;20130;-73
2022/03/31 11:39:59;;;;;;;0.30;0.28;;;4.30;79.70;;;;;;5112669;28;20126;-72
2022/03/31 11:42:25;;;;;;;0.55;0.20;;;4.30;79.70;;;;;;5112709;28;20418;-71
2022/03/31 11:44:51;;;;;;;0.30;0.30;;;4.30;79.80;;;;;;5112199;28;20035;-71
2022/03/31 11:47:18;;;;;;;0.60;0.30;;;4.30;79.80;;;;;;5112251;28;20071;-71
2022/03/31 11:49:55;;;;;;;0.25;0.25;;;4.30;79.70;;;;;;5112504;28;20036;-72
2022/03/31 11:52:29;;;;;;;0.22;0.20;;;4.30;79.70;;;;;;5111997;28;20081;-73
2022/03/31 11:54:59;;;;;;;0.30;0.30;;;4.30;79.90;;;;;;5094489;28;20042;-72
2022/03/31 11:57:26;;;;;;;0.47;0.47;;;4.20;80.10;;;;;;5112173;28;20066;-72
2022/03/31 11:59:51;;;;;;;0.20;0.20;;;4.20;80.20;;;;;;5112256;28;20032;-73
2022/03/31 12:02:18;;;;;;;0.20;0.20;;;4.20;80.30;;;;;;5092793;28;20177;-73
2022/03/31 12:04:46;;;;;;;0.20;0.20;;;4.10;80.20;;;;;;5111748;28;20126;-72
2022/03/31 12:07:12;;;;;;;0.20;0.20;;;4.00;80.30;;;;;;5115127;28;20036;-72
2022/03/31 12:09:41;;;;;;;0.20;0.20;;;4.10;80.50;;;;;;5115831;28;20043;-75
2022/03/31 12:12:12;;;;;;;0.20;0.20;;;4.00;80.50;;;;;;5096770;28;20505;-72
2022/03/31 12:14:39;;;;;;;0.30;0.30;;;4.00;80.70;;;;;;5080503;28;20036;-72
2022/03/31 12:17:06;;;;;;;0.10;0.10;;;4.00;80.80;;;;;;5096889;28;20482;-71
2022/03/31 12:19:41;;;;;;;0.73;0.20;;;4.00;80.80;;;;;;5115241;28;20044;-70
2022/03/31 12:22:09;;;;;;;0.20;0.20;;;4.00;80.70;;;;;;5079963;28;20039;-71
2022/03/31 12:24:46;;;;;;;0.20;0.20;;;4.00;80.80;;;;;;5080782;28;20035;-72
2022/03/31 12:27:16;;;;;;;0.20;0.20;;;3.90;80.90;;;;;;5097117;28;20435;-72
2022/03/31 12:29:42;;;;;;;0.15;0.15;;;3.90;81.00;;;;;;5115641;28;20048;-72
2022/03/31 12:32:10;;;;;;;0.28;0.28;;;3.90;81.00;;;;;;5114873;28;20051;-72
2022/03/31 12:34:50;;;;;;;0.20;0.20;;;3.90;81.10;;;;;;5097077;28;20036;-73
2022/03/31 12:37:28;;;;;;;0.20;0.20;;;3.80;81.20;;;;;;5114855;28;20048;-73
2022/03/31 12:39:54;;;;;;;0.20;0.20;;;3.90;81.20;;;;;;5080329;28;20127;-72
2022/03/31 12:42:19;;;;;;;0.20;0.20;;;3.90;81.10;;;;;;5115398;28;20120;-74
2022/03/31 12:44:45;;;;;;;0.20;0.20;;;3.90;81.20;;;;;;5096570;28;20035;-72
2022/03/31 12:47:17;;;;;;;0.20;0.20;;;3.80;81.20;;;;;;5096034;28;20071;-72
2022/03/31 12:49:43;;;;;;;0.20;0.20;;;3.80;81.20;;;;;;5114567;28;20074;-74
2022/03/31 12:52:15;;;;;;;0.20;0.20;;;3.80;81.30;;;;;;5095395;28;20040;-75
2022/03/31 12:54:48;;;;;;;0.20;0.20;;;3.80;81.20;;;;;;5079890;28;20075;-73
2022/03/31 12:57:19;;;;;;;0.20;0.20;;;3.90;81.20;;;;;;5097346;28;20040;-73
2022/03/31 13:00:06;;;;;;;0.17;0.17;;;3.90;81.00;;;;;;5080059;28;20043;-73
2022/03/31 13:02:35;;;;;;;0.10;0.10;;;3.90;81.00;;;;;;5114992;28;20093;-72
2022/03/31 13:05:01;;;;;;;0.22;0.22;;;4.00;81.00;;;;;;5095966;28;20503;-71
2022/03/31 13:07:27;;;;;;;0.10;0.10;;;4.00;80.90;;;;;;5096177;28;20052;-72